Hovedside
METAR-TAF:

METAR-TAF

Lufthavner :

Kristiansund, Norge

Kristiansund lufthavn

breddegrad: 63-07N, lengdegrad: 007-50E, høyde over havet: 6 m

Gjeldene værobservasjon

Denne rapporten ble laget for 38 minutter siden, klokken 09:50 UTC
Vind 9 kt fra Nord-nordøst, skiftende mellom Nord og Øst-nordøst
Temperatur 15°C
Luftfuktighet 59%
Trykk 991 hPa
Sikt 10 km eller mer
Få skyer i en høyde av 2500 ft, Tårnskyer (cumulus).

METAR: ENKB 250950Z 03009KT 360V060 9999 FEW025TCU 15/07 Q0991 RMK WIND 745FT 03012KT

Tid: 12:28 (10:28 UTC)


TAF: fraværende

Værobservasjoner og værvarsel for over 4000 flyplasser (METAR- og TAF-rapporter).

Tilgjengelige stasjoner er representert av de røde og gule prikkene på kartet.

Hold musepekeren over prikken for å se navnet på stasjonen.

Klikk så for å se værobservasjoner og -varsler.

For å forandre kartet kan du klikke på den grønne knappen med svart kryss for å zoome inn, på den grønne knappen med strek for å zoome ut, eller på de grønne pilene for å se tilstøtende kart.


METAR-TAF: